Time;durP1;ratioP1;P1;durP2;ratioP2;P2;SDS_P1;SDS_P2;PMS_P1;PMS_P2;Temp;Humidity;BMP_temperature;BMP_pressure;BME280_temperature;BME280_humidity;BME280_pressure;Samples;Min_cycle;Max_cycle;Signal;HPM_P1;HPM_P2
2022/09/18 00:00:04;;;;;;;6.10;1.35;;;11.40;99.90;;;;;;5041757;28;20526;-86
2022/09/18 00:08:38;;;;;;;8.60;1.80;;;11.40;99.90;;;;;;5063556;28;20106;-86
2022/09/18 00:11:13;;;;;;;15.50;2.38;;;11.40;99.90;;;;;;5055594;28;20101;-86
2022/09/18 00:14:19;;;;;;;11.25;1.90;;;11.40;99.90;;;;;;5057279;28;20058;-86
2022/09/18 00:17:20;;;;;;;8.85;1.55;;;11.40;99.90;;;;;;5072040;28;20045;-86
2022/09/18 00:22:59;;;;;;;9.07;1.88;;;11.40;99.90;;;;;;4975523;28;20554;-86
2022/09/18 00:25:36;;;;;;;11.07;1.70;;;11.40;99.90;;;;;;5034140;28;20139;-86
2022/09/18 00:35:32;;;;;;;7.38;1.40;;;11.40;99.90;;;;;;5019956;28;20060;-86
2022/09/18 00:38:18;;;;;;;9.05;1.40;;;11.40;99.90;;;;;;5020656;28;20042;-86
2022/09/18 00:40:51;;;;;;;8.50;1.80;;;11.40;99.90;;;;;;5018611;28;20413;-85
2022/09/18 00:43:36;;;;;;;7.53;1.30;;;11.40;99.90;;;;;;5039410;28;20445;-86
2022/09/18 00:46:25;;;;;;;8.25;1.65;;;11.40;99.90;;;;;;5011156;28;20540;-86
2022/09/18 00:49:28;;;;;;;7.88;1.58;;;11.50;99.90;;;;;;5029434;28;20033;-86
2022/09/18 00:55:19;;;;;;;7.15;1.73;;;11.50;99.90;;;;;;5030350;28;20045;-86
2022/09/18 01:01:08;;;;;;;8.02;1.80;;;11.50;99.90;;;;;;5024700;28;20057;-86
2022/09/18 01:03:55;;;;;;;12.70;2.05;;;11.50;99.90;;;;;;5003702;28;20049;-87
2022/09/18 01:06:48;;;;;;;7.28;1.27;;;11.50;99.90;;;;;;5021199;28;20477;-87
2022/09/18 01:13:38;;;;;;;10.27;1.50;;;11.60;99.90;;;;;;5069891;28;20382;-87
2022/09/18 01:16:58;;;;;;;6.13;1.25;;;11.60;99.90;;;;;;5070409;28;20075;-86
2022/09/18 01:20:13;;;;;;;5.22;1.13;;;11.60;99.90;;;;;;5002819;28;20044;-87
2022/09/18 01:23:14;;;;;;;4.65;1.05;;;11.60;99.90;;;;;;5084797;28;20040;-86
2022/09/18 01:33:05;;;;;;;6.60;1.38;;;11.60;99.90;;;;;;5066889;28;20476;-85
2022/09/18 01:39:37;;;;;;;8.32;1.88;;;11.60;99.90;;;;;;5053586;28;20523;-86
2022/09/18 01:42:34;;;;;;;9.52;1.48;;;11.60;99.90;;;;;;5037885;28;20049;-86
2022/09/18 01:48:06;;;;;;;9.48;1.35;;;11.60;99.90;;;;;;5049567;28;20559;-86
2022/09/18 01:50:42;;;;;;;3.20;1.10;;;11.60;99.90;;;;;;5059215;28;20075;-86
2022/09/18 01:53:54;;;;;;;6.15;1.27;;;11.60;99.90;;;;;;5035027;28;20478;-85
2022/09/18 01:56:43;;;;;;;5.20;0.98;;;11.60;99.90;;;;;;5063779;28;20473;-82
2022/09/18 01:59:28;;;;;;;6.38;1.02;;;11.60;99.90;;;;;;5042138;28;20044;-81
2022/09/18 02:01:58;;;;;;;4.60;1.00;;;11.50;99.90;;;;;;5053651;28;20071;-81
2022/09/18 02:04:28;;;;;;;5.53;1.10;;;11.60;99.90;;;;;;5045719;28;20040;-81
2022/09/18 02:07:06;;;;;;;4.88;1.00;;;11.50;99.90;;;;;;5056965;28;20035;-81
2022/09/18 02:09:32;;;;;;;3.55;0.82;;;11.50;99.90;;;;;;5053515;28;20040;-80
2022/09/18 02:12:02;;;;;;;6.18;1.02;;;11.50;99.90;;;;;;5040293;28;20568;-81
2022/09/18 02:14:37;;;;;;;7.13;0.93;;;11.50;99.90;;;;;;5056646;28;20075;-81
2022/09/18 02:17:09;;;;;;;5.55;0.90;;;11.50;99.90;;;;;;5040602;28;20075;-80
2022/09/18 02:19:41;;;;;;;4.60;0.90;;;11.50;99.90;;;;;;5037009;28;20040;-81
2022/09/18 02:22:15;;;;;;;4.03;0.88;;;11.40;99.90;;;;;;5037828;28;20053;-81
2022/09/18 02:24:43;;;;;;;5.57;1.02;;;11.40;99.90;;;;;;5037367;28;20509;-81
2022/09/18 02:27:12;;;;;;;2.40;0.52;;;11.40;99.90;;;;;;5054699;28;20086;-81
2022/09/18 02:29:39;;;;;;;3.53;0.80;;;11.40;99.90;;;;;;5056913;28;20053;-81
2022/09/18 02:32:05;;;;;;;2.63;0.95;;;11.40;99.90;;;;;;5005683;28;20074;-81
2022/09/18 02:34:31;;;;;;;2.80;0.98;;;11.40;99.90;;;;;;5053426;28;20040;-81
2022/09/18 02:37:26;;;;;;;8.45;1.08;;;11.40;99.90;;;;;;5042023;28;20082;-81
2022/09/18 02:40:20;;;;;;;6.80;1.77;;;11.40;99.90;;;;;;5039890;28;20141;-81
2022/09/18 02:42:52;;;;;;;6.35;1.40;;;11.40;99.90;;;;;;5046292;28;20484;-81
2022/09/18 02:45:57;;;;;;;8.27;1.10;;;11.40;99.90;;;;;;5072106;28;20374;-80
2022/09/18 02:48:59;;;;;;;4.45;0.77;;;11.40;99.90;;;;;;5038629;28;20049;-80
2022/09/18 02:51:41;;;;;;;7.00;1.13;;;11.40;99.90;;;;;;5052423;28;20045;-81
2022/09/18 02:54:39;;;;;;;3.13;0.70;;;11.40;99.90;;;;;;5035215;28;20036;-82
2022/09/18 02:57:15;;;;;;;5.60;0.80;;;11.40;99.90;;;;;;5025695;28;20092;-81
2022/09/18 02:59:53;;;;;;;3.13;1.02;;;11.40;99.90;;;;;;5035210;28;20483;-81
2022/09/18 03:02:23;;;;;;;4.35;0.95;;;11.40;99.90;;;;;;5053913;28;20461;-81
2022/09/18 03:04:50;;;;;;;3.85;1.00;;;11.40;99.90;;;;;;5055467;28;20558;-81
2022/09/18 03:07:16;;;;;;;8.75;1.17;;;11.40;99.90;;;;;;5029272;28;20075;-81
2022/09/18 03:09:42;;;;;;;8.77;1.23;;;11.40;99.90;;;;;;5022758;28;20123;-81
2022/09/18 03:12:08;;;;;;;6.78;1.10;;;11.40;99.90;;;;;;5057357;28;20376;-81
2022/09/18 03:14:40;;;;;;;8.35;1.10;;;11.50;99.90;;;;;;5049589;28;20554;-79
2022/09/18 03:17:06;;;;;;;7.43;1.15;;;11.50;99.90;;;;;;5048162;28;20040;-80
2022/09/18 03:19:31;;;;;;;8.60;1.98;;;11.50;99.90;;;;;;5036250;28;20043;-81
2022/09/18 03:21:57;;;;;;;5.57;1.17;;;11.50;99.90;;;;;;5034907;28;20182;-80
2022/09/18 03:24:24;;;;;;;6.15;1.45;;;11.50;99.90;;;;;;5035920;28;20476;-80
2022/09/18 03:26:51;;;;;;;4.95;1.00;;;11.50;99.90;;;;;;5052789;28;20071;-80
2022/09/18 03:29:17;;;;;;;9.68;1.48;;;11.50;99.90;;;;;;5032612;28;20037;-81
2022/09/18 03:31:42;;;;;;;5.85;1.02;;;11.50;99.90;;;;;;5030696;28;20044;-81
2022/09/18 03:34:08;;;;;;;6.85;1.15;;;11.50;99.90;;;;;;5024922;28;20121;-81
2022/09/18 03:36:34;;;;;;;7.05;1.10;;;11.50;99.90;;;;;;5041635;28;20037;-80
2022/09/18 03:39:00;;;;;;;11.13;1.45;;;11.60;99.90;;;;;;5036656;28;20041;-81
2022/09/18 03:41:26;;;;;;;4.20;1.08;;;11.50;99.90;;;;;;5046394;28;20075;-81
2022/09/18 03:43:51;;;;;;;5.82;1.02;;;11.50;99.90;;;;;;5035723;28;20072;-80
2022/09/18 03:46:22;;;;;;;6.57;0.90;;;11.40;99.90;;;;;;5030494;28;20115;-80
2022/09/18 03:48:51;;;;;;;3.67;0.95;;;11.40;99.90;;;;;;5038306;28;20040;-81
2022/09/18 03:51:18;;;;;;;5.40;1.10;;;11.50;99.90;;;;;;5055765;28;20105;-81
2022/09/18 03:53:45;;;;;;;4.95;1.00;;;11.40;99.90;;;;;;5037783;28;20104;-81
2022/09/18 03:56:12;;;;;;;7.90;1.13;;;11.70;99.90;;;;;;5029916;28;20091;-81
2022/09/18 03:58:38;;;;;;;4.80;1.25;;;11.40;99.90;;;;;;5039627;28;20032;-81
2022/09/18 04:01:05;;;;;;;6.38;1.30;;;11.40;99.90;;;;;;5033277;28;20129;-81
2022/09/18 04:03:32;;;;;;;6.68;1.10;;;11.40;99.90;;;;;;5036132;28;20070;-80
2022/09/18 04:05:58;;;;;;;4.60;0.98;;;11.40;99.90;;;;;;5039447;28;20066;-80
2022/09/18 04:08:24;;;;;;;4.00;1.38;;;11.40;99.90;;;;;;5019011;28;20482;-81
2022/09/18 04:10:49;;;;;;;7.45;1.20;;;11.50;99.90;;;;;;5055983;28;20099;-80
2022/09/18 04:13:15;;;;;;;8.13;1.02;;;11.40;99.90;;;;;;5037975;28;20431;-81
2022/09/18 04:15:44;;;;;;;6.95;1.17;;;11.40;99.90;;;;;;5030075;28;20037;-81
2022/09/18 04:18:10;;;;;;;6.63;1.02;;;11.40;99.90;;;;;;5035461;28;20543;-81
2022/09/18 04:20:35;;;;;;;3.60;1.02;;;11.50;99.90;;;;;;5021884;28;20044;-81
2022/09/18 04:23:01;;;;;;;6.25;1.00;;;11.50;99.90;;;;;;5003531;28;20041;-81
2022/09/18 04:25:27;;;;;;;5.20;1.05;;;11.50;99.90;;;;;;5023743;28;20443;-81
2022/09/18 04:27:53;;;;;;;3.45;0.90;;;11.40;99.90;;;;;;5011166;28;20115;-81
2022/09/18 04:30:19;;;;;;;5.30;0.93;;;11.50;99.90;;;;;;5037399;28;20067;-81
2022/09/18 04:32:44;;;;;;;8.45;0.90;;;11.40;99.90;;;;;;5041275;28;20063;-81
2022/09/18 04:35:11;;;;;;;7.65;1.52;;;11.40;99.90;;;;;;5017182;28;20048;-81
2022/09/18 04:37:37;;;;;;;4.45;0.80;;;11.40;99.90;;;;;;5037914;28;20102;-81
2022/09/18 04:40:04;;;;;;;4.85;1.10;;;11.40;99.90;;;;;;5042177;28;20472;-81
2022/09/18 04:42:31;;;;;;;4.75;0.90;;;11.40;99.90;;;;;;5058278;28;20464;-81
2022/09/18 04:44:56;;;;;;;2.80;0.70;;;11.60;99.90;;;;;;5056153;28;20441;-81
2022/09/18 04:47:22;;;;;;;4.28;0.70;;;11.40;99.90;;;;;;5040161;28;20068;-81
2022/09/18 04:49:48;;;;;;;3.80;1.05;;;11.40;99.90;;;;;;5043793;28;20039;-81
2022/09/18 04:52:13;;;;;;;8.38;0.90;;;11.40;99.90;;;;;;5042690;28;20105;-80
2022/09/18 04:54:39;;;;;;;6.47;0.80;;;11.40;99.90;;;;;;5040750;28;20043;-81
2022/09/18 04:57:05;;;;;;;3.17;1.13;;;11.40;99.90;;;;;;5059878;28;20047;-81
2022/09/18 04:59:31;;;;;;;5.45;1.23;;;11.40;99.90;;;;;;5038815;28;20059;-81
2022/09/18 05:01:58;;;;;;;7.18;1.40;;;11.40;99.90;;;;;;5068125;28;20127;-80
2022/09/18 05:04:23;;;;;;;3.72;0.77;;;11.30;99.90;;;;;;5076165;28;20036;-80
2022/09/18 05:06:49;;;;;;;8.02;1.35;;;11.80;99.90;;;;;;5053868;28;20047;-80
2022/09/18 05:09:15;;;;;;;4.72;1.27;;;11.30;99.90;;;;;;5056622;28;20123;-80
2022/09/18 05:11:40;;;;;;;3.80;0.75;;;11.40;99.90;;;;;;5060302;28;20040;-80
2022/09/18 05:14:06;;;;;;;5.00;1.10;;;11.40;99.90;;;;;;5077366;28;20043;-80
2022/09/18 05:16:32;;;;;;;4.75;0.80;;;11.40;99.90;;;;;;5059090;28;20040;-80
2022/09/18 05:18:58;;;;;;;4.10;1.45;;;11.30;99.90;;;;;;5052170;28;20150;-80
2022/09/18 05:21:24;;;;;;;4.13;0.80;;;11.30;99.90;;;;;;5060862;28;20074;-80
2022/09/18 05:23:50;;;;;;;5.60;0.82;;;11.40;99.90;;;;;;5044272;28;20119;-81
2022/09/18 05:26:16;;;;;;;3.15;0.77;;;11.30;99.90;;;;;;5057600;28;20115;-80
2022/09/18 05:28:41;;;;;;;4.22;0.85;;;11.30;99.90;;;;;;5056436;28;20040;-80
2022/09/18 05:31:07;;;;;;;2.90;0.93;;;11.30;99.90;;;;;;5051367;28;20041;-80
2022/09/18 05:33:33;;;;;;;4.53;0.80;;;11.30;99.90;;;;;;5069078;28;20032;-80
2022/09/18 05:35:59;;;;;;;5.07;0.90;;;11.30;99.90;;;;;;5059490;28;20492;-81
2022/09/18 05:38:25;;;;;;;6.50;1.02;;;11.30;99.90;;;;;;5051611;28;20135;-80
2022/09/18 05:40:51;;;;;;;4.47;1.17;;;11.30;99.90;;;;;;5079722;28;20051;-80
2022/09/18 05:43:17;;;;;;;6.80;1.00;;;11.30;99.90;;;;;;5078566;28;20044;-80
2022/09/18 05:45:44;;;;;;;4.75;0.82;;;11.30;99.90;;;;;;5061634;28;20120;-81
2022/09/18 05:48:13;;;;;;;5.10;1.00;;;11.30;99.90;;;;;;5059659;28;20060;-80
2022/09/18 05:50:39;;;;;;;4.22;1.25;;;11.30;99.90;;;;;;5043322;28;20094;-80
2022/09/18 05:53:11;;;;;;;5.40;0.90;;;11.30;99.90;;;;;;5067407;28;20051;-82
2022/09/18 05:55:37;;;;;;;4.40;0.85;;;11.30;99.90;;;;;;5057498;28;20064;-81
2022/09/18 05:58:05;;;;;;;6.47;1.08;;;11.30;99.90;;;;;;5062203;28;20117;-81
2022/09/18 06:00:33;;;;;;;6.93;1.33;;;11.30;99.90;;;;;;5082273;28;20039;-81
2022/09/18 06:03:01;;;;;;;3.42;0.90;;;11.70;99.90;;;;;;5057447;28;20040;-81
2022/09/18 06:05:29;;;;;;;6.25;0.80;;;11.30;99.90;;;;;;5063206;28;20119;-80
2022/09/18 06:07:57;;;;;;;5.22;1.30;;;11.30;99.90;;;;;;5064273;28;20036;-81
2022/09/18 06:10:22;;;;;;;5.18;1.10;;;11.40;99.90;;;;;;5060118;28;20031;-81
2022/09/18 06:12:48;;;;;;;5.75;1.30;;;11.40;99.90;;;;;;5059201;28;20047;-81
2022/09/18 06:15:15;;;;;;;3.80;0.95;;;11.40;99.90;;;;;;5054423;28;20044;-81
2022/09/18 06:17:41;;;;;;;7.18;1.17;;;11.40;99.90;;;;;;5067298;28;20032;-82
2022/09/18 06:20:08;;;;;;;8.40;1.23;;;11.40;99.90;;;;;;5058173;28;20044;-86
2022/09/18 06:22:37;;;;;;;8.35;1.40;;;11.40;99.90;;;;;;5069981;28;20082;-86
2022/09/18 06:25:03;;;;;;;5.70;1.05;;;11.40;99.90;;;;;;5058213;28;20047;-86
2022/09/18 06:27:29;;;;;;;9.85;1.48;;;11.40;99.90;;;;;;5058373;28;20035;-86
2022/09/18 06:29:55;;;;;;;6.88;1.30;;;11.40;99.90;;;;;;5064878;28;20389;-85
2022/09/18 06:32:20;;;;;;;8.98;1.38;;;11.40;99.90;;;;;;5044903;28;20039;-85
2022/09/18 06:34:46;;;;;;;3.53;0.95;;;11.40;99.90;;;;;;5041376;28;20044;-86
2022/09/18 06:37:13;;;;;;;11.25;1.33;;;11.40;99.90;;;;;;5060850;28;20075;-85
2022/09/18 06:39:39;;;;;;;7.25;0.95;;;11.40;99.90;;;;;;5062810;28;20055;-85
2022/09/18 06:42:05;;;;;;;4.95;0.90;;;11.40;99.90;;;;;;5030998;28;20103;-84
2022/09/18 06:44:31;;;;;;;4.53;0.90;;;11.50;99.90;;;;;;5049685;28;20044;-84
2022/09/18 06:46:57;;;;;;;2.72;1.00;;;11.40;99.90;;;;;;5068520;28;20553;-85
2022/09/18 06:49:23;;;;;;;6.07;1.10;;;11.50;99.90;;;;;;5077425;28;20040;-86
2022/09/18 06:51:48;;;;;;;3.90;1.10;;;11.50;99.90;;;;;;5046265;28;20123;-85
2022/09/18 06:54:15;;;;;;;4.82;1.38;;;11.50;99.90;;;;;;5076610;28;20044;-86
2022/09/18 06:56:41;;;;;;;3.63;1.10;;;11.50;99.90;;;;;;5065585;28;20500;-86
2022/09/18 06:59:07;;;;;;;8.10;1.35;;;11.50;99.90;;;;;;5047476;28;20093;-85
2022/09/18 07:01:32;;;;;;;8.30;1.30;;;11.50;99.90;;;;;;5072195;28;20123;-86
2022/09/18 07:03:59;;;;;;;4.90;1.30;;;11.50;99.90;;;;;;5056553;28;20107;-85
2022/09/18 07:06:25;;;;;;;9.23;1.60;;;11.60;99.90;;;;;;5070773;28;20032;-86
2022/09/18 07:08:51;;;;;;;4.45;1.20;;;11.60;99.90;;;;;;5060117;28;20031;-87
2022/09/18 07:11:17;;;;;;;5.40;1.23;;;11.60;99.90;;;;;;5082028;28;20075;-88
2022/09/18 07:13:44;;;;;;;6.38;1.38;;;11.60;99.90;;;;;;5057142;28;20072;-84
2022/09/18 07:16:10;;;;;;;6.55;1.00;;;11.70;99.90;;;;;;5052533;28;20040;-90
2022/09/18 07:18:35;;;;;;;8.27;1.60;;;11.60;99.90;;;;;;5038720;28;20040;-91
2022/09/18 07:21:01;;;;;;;9.82;1.20;;;11.60;99.90;;;;;;5039223;28;20039;-89
2022/09/18 07:23:29;;;;;;;7.50;1.40;;;11.60;99.90;;;;;;5073649;28;20067;-88
2022/09/18 07:25:58;;;;;;;7.47;1.55;;;11.60;99.90;;;;;;5039361;28;20048;-88
2022/09/18 07:28:24;;;;;;;8.43;1.50;;;11.60;99.90;;;;;;5054783;28;20484;-88
2022/09/18 07:30:50;;;;;;;7.22;1.30;;;11.60;99.90;;;;;;5034867;28;20063;-88
2022/09/18 07:33:15;;;;;;;6.85;1.23;;;11.60;99.90;;;;;;5060275;28;20040;-87
2022/09/18 07:35:41;;;;;;;7.90;1.40;;;11.70;99.90;;;;;;5059879;28;20040;-86
2022/09/18 07:38:08;;;;;;;7.25;1.20;;;11.70;99.90;;;;;;5042444;28;20051;-86
2022/09/18 07:40:34;;;;;;;8.05;1.52;;;11.70;99.90;;;;;;5073384;28;20052;-86
2022/09/18 07:43:09;;;;;;;4.72;1.63;;;11.70;99.90;;;;;;5060516;28;20064;-86
2022/09/18 07:45:35;;;;;;;5.97;1.10;;;11.70;99.90;;;;;;5080022;28;20040;-85
2022/09/18 07:48:06;;;;;;;8.88;1.73;;;11.70;99.90;;;;;;5095785;28;20302;-86
2022/09/18 07:50:32;;;;;;;5.65;1.10;;;11.80;99.90;;;;;;5051476;28;20176;-84
2022/09/18 07:53:04;;;;;;;5.20;1.50;;;11.80;99.90;;;;;;5057905;28;20036;-84
2022/09/18 07:55:30;;;;;;;5.47;1.10;;;11.80;99.90;;;;;;5051784;28;20082;-85
2022/09/18 07:57:59;;;;;;;6.25;1.20;;;11.80;99.90;;;;;;5055470;28;20131;-86
2022/09/18 08:00:26;;;;;;;4.22;1.00;;;11.80;99.90;;;;;;5049982;28;20039;-86
2022/09/18 08:03:06;;;;;;;6.00;1.35;;;11.80;99.90;;;;;;5077023;28;20078;-85
2022/09/18 08:05:32;;;;;;;3.40;1.15;;;11.80;99.90;;;;;;5050480;28;20040;-86
2022/09/18 08:08:03;;;;;;;7.95;1.25;;;11.80;99.90;;;;;;5049115;28;20036;-84
2022/09/18 08:10:29;;;;;;;5.13;0.90;;;11.90;99.90;;;;;;5072251;28;20086;-85
2022/09/18 08:12:54;;;;;;;5.32;0.70;;;11.90;99.90;;;;;;5041105;28;20040;-86
2022/09/18 08:15:20;;;;;;;4.78;0.80;;;11.80;99.90;;;;;;5064588;28;20028;-86
2022/09/18 08:17:46;;;;;;;3.28;0.80;;;11.90;99.90;;;;;;5063099;28;20043;-86
2022/09/18 08:20:12;;;;;;;1.55;0.70;;;11.70;99.90;;;;;;5045436;28;20040;-86
2022/09/18 08:22:39;;;;;;;3.03;0.70;;;11.70;99.90;;;;;;5089836;28;20348;-89
2022/09/18 08:25:06;;;;;;;3.05;0.88;;;11.70;99.90;;;;;;5062956;28;20130;-90
2022/09/18 08:27:39;;;;;;;2.00;0.70;;;11.60;99.90;;;;;;5077580;28;20132;-89
2022/09/18 08:30:07;;;;;;;1.67;0.70;;;11.60;99.90;;;;;;5077980;28;20436;-87
2022/09/18 08:32:33;;;;;;;3.55;0.68;;;11.60;99.90;;;;;;5063519;28;20036;-87
2022/09/18 08:35:00;;;;;;;3.35;0.60;;;11.60;99.90;;;;;;5061528;28;20559;-87
2022/09/18 08:37:26;;;;;;;4.10;0.90;;;11.60;99.90;;;;;;5045555;28;20048;-85
2022/09/18 08:39:52;;;;;;;3.10;0.98;;;11.50;99.90;;;;;;5048002;28;20056;-86
2022/09/18 08:42:36;;;;;;;4.40;0.80;;;11.50;99.90;;;;;;5029366;28;20044;-86
2022/09/18 08:45:24;;;;;;;2.38;0.75;;;11.50;99.90;;;;;;5058114;28;20040;-87
2022/09/18 08:48:01;;;;;;;2.00;0.60;;;11.50;99.90;;;;;;5062929;28;20073;-87
2022/09/18 08:50:34;;;;;;;1.83;0.68;;;11.50;99.90;;;;;;5073446;28;20031;-88
2022/09/18 08:53:17;;;;;;;4.85;1.25;;;11.50;99.90;;;;;;5068376;28;20044;-87
2022/09/18 08:55:46;;;;;;;4.45;1.25;;;11.50;99.90;;;;;;5059513;28;20522;-86
2022/09/18 08:58:21;;;;;;;1.80;0.75;;;11.50;99.90;;;;;;5053222;28;20082;-85
2022/09/18 09:00:51;;;;;;;3.13;0.80;;;11.40;99.90;;;;;;5048271;28;20032;-87
2022/09/18 09:03:31;;;;;;;3.20;0.95;;;11.50;99.90;;;;;;5077821;28;20143;-86
2022/09/18 09:06:26;;;;;;;3.90;0.88;;;11.50;99.90;;;;;;5056003;28;20562;-87
2022/09/18 09:08:57;;;;;;;3.83;0.98;;;11.50;99.90;;;;;;5076148;28;20051;-87
2022/09/18 09:11:37;;;;;;;5.15;1.00;;;11.50;99.90;;;;;;5053942;28;20040;-87
2022/09/18 09:14:06;;;;;;;3.05;1.20;;;11.50;99.90;;;;;;5052584;28;20059;-89
2022/09/18 09:16:49;;;;;;;2.28;1.20;;;11.50;99.90;;;;;;5056282;28;20408;-91
2022/09/18 09:19:27;;;;;;;3.53;0.90;;;11.50;99.90;;;;;;5077746;28;20043;-93
2022/09/18 09:22:18;;;;;;;4.07;0.98;;;11.50;99.90;;;;;;5080095;28;20921;-92
2022/09/18 09:25:03;;;;;;;7.47;1.00;;;11.50;99.90;;;;;;5067428;28;20044;-90
2022/09/18 09:27:33;;;;;;;5.43;1.00;;;11.50;99.90;;;;;;5079544;28;20048;-90
2022/09/18 09:30:19;;;;;;;2.33;0.93;;;11.50;99.90;;;;;;5066743;28;20032;-89
2022/09/18 09:32:56;;;;;;;2.22;1.00;;;11.50;99.90;;;;;;5085346;28;20047;-88
2022/09/18 09:35:34;;;;;;;4.95;1.00;;;11.50;99.90;;;;;;5046057;28;20051;-87
2022/09/18 09:38:05;;;;;;;4.80;1.27;;;11.60;99.90;;;;;;5068469;28;20507;-89
2022/09/18 09:40:51;;;;;;;5.00;1.10;;;11.60;99.90;;;;;;5077084;28;20150;-90
2022/09/18 09:44:08;;;;;;;4.28;1.20;;;11.60;99.90;;;;;;5060309;28;20396;-88
2022/09/18 09:47:00;;;;;;;5.93;0.98;;;11.70;99.90;;;;;;5053974;28;20044;-88
2022/09/18 09:49:37;;;;;;;3.45;0.98;;;11.70;99.90;;;;;;5071992;28;20053;-88
2022/09/18 09:52:24;;;;;;;3.72;0.95;;;11.70;99.90;;;;;;5057921;28;20431;-88
2022/09/18 09:54:55;;;;;;;9.68;1.38;;;11.70;99.90;;;;;;5074666;28;20028;-88
2022/09/18 09:57:39;;;;;;;3.28;1.00;;;11.70;99.90;;;;;;5062360;28;20045;-86
2022/09/18 10:00:17;;;;;;;5.07;1.30;;;11.80;99.90;;;;;;5059377;28;20040;-87
2022/09/18 10:02:49;;;;;;;5.20;1.38;;;11.80;99.90;;;;;;5053764;28;20047;-85
2022/09/18 10:05:42;;;;;;;5.07;1.33;;;11.80;99.90;;;;;;5061402;28;20118;-88
2022/09/18 10:08:20;;;;;;;5.45;1.20;;;11.90;99.90;;;;;;5065003;28;20040;-87
2022/09/18 10:10:56;;;;;;;3.60;1.20;;;11.90;99.90;;;;;;5062312;28;20047;-84
2022/09/18 10:13:31;;;;;;;7.22;1.40;;;12.00;99.90;;;;;;5072589;28;20036;-84
2022/09/18 10:16:15;;;;;;;6.80;1.33;;;12.00;99.90;;;;;;5062126;28;20551;-84
2022/09/18 10:18:44;;;;;;;6.18;1.80;;;12.10;99.90;;;;;;5066151;28;20046;-84
2022/09/18 10:21:14;;;;;;;5.07;1.92;;;12.10;99.90;;;;;;5065721;28;20039;-84
2022/09/18 10:23:42;;;;;;;3.80;1.40;;;12.10;99.90;;;;;;5068112;28;20039;-84
2022/09/18 10:26:49;;;;;;;6.72;1.30;;;12.10;99.90;;;;;;5074170;28;20039;-84
2022/09/18 10:29:17;;;;;;;6.70;1.25;;;12.20;99.90;;;;;;5020693;28;20052;-84
2022/09/18 10:31:48;;;;;;;6.80;1.52;;;12.10;99.90;;;;;;5060589;28;20048;-84
2022/09/18 10:34:38;;;;;;;4.45;1.10;;;12.10;99.90;;;;;;5055296;28;20052;-84
2022/09/18 10:37:04;;;;;;;4.65;1.27;;;12.20;99.90;;;;;;5077809;28;20046;-84
2022/09/18 10:39:33;;;;;;;5.88;1.10;;;12.20;99.90;;;;;;5075748;28;20052;-84
2022/09/18 10:42:12;;;;;;;7.65;1.13;;;12.20;99.90;;;;;;5075354;28;20400;-84
2022/09/18 10:44:47;;;;;;;4.72;0.90;;;12.20;99.90;;;;;;5058537;28;20044;-84
2022/09/18 10:47:17;;;;;;;5.63;1.10;;;12.20;99.90;;;;;;5070313;28;20037;-84
2022/09/18 10:50:05;;;;;;;5.95;1.40;;;12.20;99.90;;;;;;5069385;28;20066;-84
2022/09/18 10:52:36;;;;;;;5.38;2.00;;;12.30;99.90;;;;;;5051675;28;20041;-84
2022/09/18 10:55:06;;;;;;;5.20;1.10;;;12.20;99.90;;;;;;5074782;28;20117;-87
2022/09/18 10:57:33;;;;;;;7.18;1.40;;;12.20;99.90;;;;;;5069192;28;20064;-88
2022/09/18 10:59:59;;;;;;;5.60;1.10;;;12.20;99.90;;;;;;5070363;28;20070;-87
2022/09/18 11:02:33;;;;;;;5.32;0.93;;;12.20;99.90;;;;;;5040533;28;20047;-88
2022/09/18 11:05:01;;;;;;;4.20;0.95;;;12.20;99.90;;;;;;5075744;28;20047;-88
2022/09/18 11:07:27;;;;;;;9.50;1.08;;;12.10;99.90;;;;;;5075353;28;20035;-88
2022/09/18 11:09:52;;;;;;;5.40;1.17;;;12.10;99.90;;;;;;5021899;28;20542;-88
2022/09/18 11:12:22;;;;;;;5.50;1.17;;;12.10;99.90;;;;;;5050021;28;20069;-88
2022/09/18 11:15:13;;;;;;;4.43;0.80;;;12.10;99.90;;;;;;5054361;28;20036;-89
2022/09/18 11:17:51;;;;;;;4.13;1.25;;;12.10;99.90;;;;;;5054492;28;20040;-87
2022/09/18 11:20:41;;;;;;;3.53;1.10;;;12.10;99.90;;;;;;5073052;28;20073;-87
2022/09/18 11:23:28;;;;;;;6.30;1.42;;;12.20;99.90;;;;;;5064254;28;20436;-86
2022/09/18 11:26:18;;;;;;;6.15;1.35;;;12.20;99.90;;;;;;5051517;28;20059;-86
2022/09/18 11:29:20;;;;;;;5.75;1.10;;;12.20;99.90;;;;;;5075272;28;20074;-85
2022/09/18 11:31:51;;;;;;;4.65;1.20;;;12.20;99.90;;;;;;5052818;28;20040;-84
2022/09/18 11:34:28;;;;;;;4.13;1.00;;;12.20;99.90;;;;;;5058634;28;20036;-84
2022/09/18 11:36:58;;;;;;;5.65;1.30;;;12.20;99.90;;;;;;5075143;28;20041;-84
2022/09/18 11:39:33;;;;;;;3.80;1.10;;;12.20;99.90;;;;;;5072170;28;20102;-84
2022/09/18 11:41:59;;;;;;;7.32;1.63;;;12.20;99.90;;;;;;5070608;28;20040;-83
2022/09/18 11:44:31;;;;;;;4.47;1.20;;;12.30;99.90;;;;;;5052112;28;20036;-84
2022/09/18 11:47:06;;;;;;;7.78;1.60;;;12.30;99.90;;;;;;5071164;28;20488;-84
2022/09/18 11:50:16;;;;;;;7.05;1.60;;;12.30;99.90;;;;;;5066588;28;20483;-83
2022/09/18 11:52:45;;;;;;;7.78;1.30;;;12.30;99.90;;;;;;5035086;28;20047;-84
2022/09/18 11:55:28;;;;;;;8.60;1.30;;;12.40;99.90;;;;;;5047477;28;20044;-84
2022/09/18 11:58:15;;;;;;;8.57;1.30;;;12.40;99.90;;;;;;5074029;28;20036;-84
2022/09/18 12:00:47;;;;;;;7.00;1.33;;;12.40;99.90;;;;;;5064499;28;20052;-84
2022/09/18 12:03:15;;;;;;;7.95;1.38;;;12.50;99.90;;;;;;5065101;28;20396;-84
2022/09/18 12:05:52;;;;;;;5.55;1.70;;;12.50;99.90;;;;;;5060696;28;20103;-84
2022/09/18 12:08:42;;;;;;;9.27;1.58;;;12.60;99.90;;;;;;5068285;28;20119;-84
2022/09/18 12:11:30;;;;;;;7.22;1.40;;;12.60;99.90;;;;;;5068395;28;20484;-84
2022/09/18 12:14:22;;;;;;;5.07;1.33;;;12.70;99.90;;;;;;5072108;28;20063;-85
2022/09/18 12:16:53;;;;;;;5.90;1.08;;;12.70;99.90;;;;;;5054132;28;20043;-84
2022/09/18 12:19:30;;;;;;;7.30;1.40;;;12.80;99.90;;;;;;5073014;28;20040;-84
2022/09/18 12:22:08;;;;;;;23.65;2.75;;;12.80;99.90;;;;;;5052120;28;20531;-84
2022/09/18 12:24:34;;;;;;;7.25;1.45;;;12.80;99.90;;;;;;5076052;28;20040;-84
2022/09/18 12:27:05;;;;;;;10.70;2.05;;;12.90;99.90;;;;;;5059853;28;20043;-84
2022/09/18 12:30:11;;;;;;;9.32;1.50;;;12.90;99.90;;;;;;5077336;28;20079;-84
2022/09/18 12:32:46;;;;;;;5.68;1.25;;;12.90;99.90;;;;;;4974858;28;20491;-84
2022/09/18 12:35:27;;;;;;;10.63;1.60;;;13.00;99.90;;;;;;4978434;28;20041;-84
2022/09/18 12:38:22;;;;;;;7.97;1.60;;;13.00;99.90;;;;;;5057239;28;20079;-84
2022/09/18 12:41:04;;;;;;;7.78;1.73;;;13.00;99.90;;;;;;5080096;28;20024;-83
2022/09/18 12:43:48;;;;;;;5.50;1.27;;;13.00;99.90;;;;;;5072770;28;20479;-84
2022/09/18 12:46:48;;;;;;;6.68;1.42;;;13.00;99.90;;;;;;5084769;28;20103;-83
2022/09/18 12:49:36;;;;;;;7.53;1.55;;;13.00;99.90;;;;;;5037630;28;20048;-83
2022/09/18 12:52:30;;;;;;;4.75;1.27;;;13.00;99.90;;;;;;5072306;28;20094;-83
2022/09/18 12:55:30;;;;;;;9.98;1.85;;;13.00;99.90;;;;;;5075831;28;20059;-83
2022/09/18 12:57:58;;;;;;;7.38;1.45;;;13.10;99.90;;;;;;5064962;28;20070;-84
2022/09/18 13:00:24;;;;;;;10.05;1.95;;;13.10;99.90;;;;;;5066465;28;20037;-84
2022/09/18 13:03:08;;;;;;;6.30;1.95;;;13.10;99.90;;;;;;5057148;28;20090;-83
2022/09/18 13:05:58;;;;;;;7.78;1.50;;;13.10;99.90;;;;;;5055537;28;20039;-84
2022/09/18 13:08:32;;;;;;;9.02;1.60;;;13.20;99.90;;;;;;5050932;28;20035;-84
2022/09/18 13:11:24;;;;;;;6.75;1.67;;;13.20;99.90;;;;;;5056374;28;20032;-85
2022/09/18 13:14:03;;;;;;;13.27;2.42;;;13.20;99.90;;;;;;5051823;28;20127;-86
2022/09/18 13:16:46;;;;;;;8.50;2.17;;;13.20;99.90;;;;;;5076809;28;20032;-83
2022/09/18 13:19:18;;;;;;;7.65;1.40;;;13.20;99.90;;;;;;5061688;28;20448;-83
2022/09/18 13:21:44;;;;;;;7.10;1.45;;;13.20;99.90;;;;;;5060443;28;20542;-83
2022/09/18 13:24:16;;;;;;;6.72;1.15;;;13.20;99.90;;;;;;5072857;28;20039;-84
2022/09/18 13:26:46;;;;;;;7.70;1.60;;;13.20;99.90;;;;;;5072591;28;20046;-85
2022/09/18 13:29:49;;;;;;;11.63;1.60;;;13.10;99.90;;;;;;5056642;28;20051;-84
2022/09/18 13:32:29;;;;;;;8.27;1.45;;;13.20;99.90;;;;;;5059027;28;21375;-85
2022/09/18 13:35:01;;;;;;;6.60;1.23;;;13.10;99.90;;;;;;5078812;28;20063;-84
2022/09/18 13:37:29;;;;;;;7.57;1.30;;;13.10;99.90;;;;;;5058187;28;20100;-84
2022/09/18 13:40:08;;;;;;;10.07;1.45;;;13.10;99.90;;;;;;5079678;28;20052;-85
2022/09/18 13:42:38;;;;;;;7.25;1.50;;;13.00;99.90;;;;;;5069895;28;20063;-84
2022/09/18 13:45:21;;;;;;;7.85;2.10;;;12.90;99.90;;;;;;5085921;28;20094;-85
2022/09/18 13:48:03;;;;;;;7.47;2.58;;;12.80;99.90;;;;;;5075100;28;20564;-84
2022/09/18 13:50:32;;;;;;;14.98;7.05;;;12.70;99.90;;;;;;5084201;28;20141;-84
2022/09/18 13:53:00;;;;;;;12.13;3.17;;;12.60;99.90;;;;;;5063399;28;20487;-84
2022/09/18 13:55:26;;;;;;;8.07;1.70;;;12.50;99.90;;;;;;5076171;28;20376;-84
2022/09/18 13:58:30;;;;;;;7.20;1.90;;;12.50;99.90;;;;;;5087881;28;20459;-84
2022/09/18 14:01:04;;;;;;;6.15;1.60;;;12.50;99.90;;;;;;5078361;28;20112;-84